the time You need

Misano Open Day

Misano, Rimini   Italy

domenica 28 febbraio 2016

Percorsi

LUNGO - 30.0 Km

 

CORTO - 15.0 Km

Servizi

ADSCOSTPunti KS Ranking

Chip

Circuiti

Caveja Bike CupMare e Colline

Ente

UISP

CLASSIFICA

LUNGO - 30.0 Km

Pos Atleta Sesso Cat PosC Team Tempo Media RTime
DNF GAVANELLI LORENZO M 2S - POL. YOUNG LINE 00:33:50.74 53,20 00:33:50.74
1 SAMBI CHRISTIAN M M3 1 ASD SAMBI TEAM 00:56:17.79 31,98 00:56:17.79
2 CAPECE MATTIA M M1 1 KTM FORTI E LIBERI 00:56:18.18 31,97 00:56:18.18
3 DE LORENZI ENRICO M M1 2 KTM FORTI E LIBERI 00:56:18.20 31,97 00:56:18.20
4 GHERARDI ALESSANDRO M ELMT 1 SALINBICI BIKE TEAM RUOTE 00:56:18.54 31,97 00:56:18.54
5 FONTANELLI MATTEO M ELMT 2 TEAM PASSION FAENTINA 00:56:18.64 31,97 00:56:18.64
6 FABBRI CHRISTIAN M M3 2 TEAM PASSION FAENTINA 00:56:18.66 31,97 00:56:18.66
7 BUCCI EMANUELE M M1 3 SS FRECCE ROSSE 00:56:18.79 31,97 00:56:18.79
8 BRUNETTI MARCO M ELMT 3 BIKE INNOVATION SQUADRA CORSE 00:56:19.10 31,96 00:56:19.10
9 GALAMINI MAURIZIO M M5 1 BARACCA LUGO CORSA MTB 00:56:19.54 31,96 00:56:19.54
10 LUNGHI SIMONE M M2 1 TEAM MONDOBICI TECNOPLAST 00:56:19.68 31,96 00:56:19.68
11 FIRMIANI MARCO M M2 2 ASD SAMBI TEAM 00:56:19.70 31,96 00:56:19.70
12 ZAMA LORENZO M M1 4 TEAM PASSION FAENTINA 00:56:19.71 31,96 00:56:19.71
13 ZANETTI GIANNI M M2 3 TEAM ZANETTI ASD 00:56:19.79 31,96 00:56:19.79
14 RUFFILLI PAOLO M M2 4 SPACCO ASD 00:56:20.77 31,95 00:56:20.77
15 CHIARINI LUCA M M2 5 TEAM PASSION FAENTINA 00:56:24.04 31,91 00:56:24.04
16 BOVINO MARIO M M4 1 KTM FORTI E LIBERI 00:56:48.04 31,69 00:56:48.04
17 VENTURINI MIRKO M M2 6 TEAM PASSION FAENTINA 00:56:49.05 31,68 00:56:49.05
18 BRAVACCINI MATTEO M M1 5 COMERO BIKE 00:57:15.04 31,44 00:57:15.04
19 FRANCIONI MARCO M ELMT 4 TEAM NOB JOLLYWEAR 00:57:15.13 31,44 00:57:15.13
20 RIPA STEFANO M M2 7 TEAM MONDOBICI TECNOPLAST 00:57:15.54 31,44 00:57:15.54
21 PASINI GIOVANNI M M3 3 KTM FORTI E LIBERI 00:57:15.74 31,44 00:57:15.74
22 RENZI GIANMARIA M ELMT 5 ASD POLISPORTIVA BIKEFAN 00:57:15.80 31,44 00:57:15.80
23 PUGLISI DANIELE M ELMT 6 ASD BLACK ROAD 00:57:16.19 31,43 00:57:16.19
24 FANTINI FABIO M M2 8 ASCD VALLE DEL CONCA 00:57:16.30 31,43 00:57:16.30
25 LEONI GERMANO M M5 2 TEAM PASSION FAENTINA 00:57:16.52 31,43 00:57:16.52
26 GATTONI LUCA M ELMT 7 TEAM MONDOBICI TECNOPLAST 00:57:16.55 31,43 00:57:16.55
27 FABBRI DAVIDE M M3 4 ASD H3O RACE TEAM 00:57:16.75 31,43 00:57:16.75
28 FORESTIERI ALESSANDRO M M4 2 DEKA RIDERS 00:57:16.96 31,43 00:57:16.96
29 TIBERI ENRICO M M2 9 TEAM MONDOBICI TECNOPLAST 00:57:18.04 31,41 00:57:18.04
30 BIANCHI LUCA M 2S 1 ASD TEAM BIKE VALCONCA 00:57:18.29 31,41 00:57:18.29
31 ROVELLI ALESSANDRO M M1 6 INDIVIDUALE 00:57:18.55 31,41 00:57:18.55
32 POLVERINO ANDREA M M1 7 KTM FORTI E LIBERI 00:57:18.79 31,41 00:57:18.79
33 SALVATORI STEFANO M M6 1 KTM FORTI E LIBERI 00:57:19.19 31,40 00:57:19.19
34 ASTOLFI OMAR M M3 5 ASD H3O RACE TEAM 00:57:21.79 31,39 00:57:21.79
35 MANZAROLI SAURO M M4 3 SAN MARINO MTB TEAM 00:57:23.04 31,37 00:57:23.04
36 CAPPELLI ALEX M ELMT 8 GRUPPO TNT 00:57:23.77 31,37 00:57:23.77
37 TIBERI MATTEO M M1 8 TEAM MONDOBICI TECNOPLAST 00:57:45.05 31,17 00:57:45.05
38 FABBRI CLAUDIO M M1 9 TEAM PASSION FAENTINA 00:57:52.55 31,11 00:57:52.55
39 MENGOZZI ANDREA M ELMT 9 ASD LE SALINE NATURA E SPORT 00:57:56.55 31,07 00:57:56.55
40 MEDRI FRANCESCO M M5 3 BARACCA LUGO CORSA MTB 00:58:09.55 30,95 00:58:09.55
41 BOSI FABIO M M2 10 SPECIALISSIMA TEAM BIKE 00:58:59.80 30,52 00:58:59.80
42 FRANCIONI LUCA M M1 10 TEAM NOB JOLLYWEAR 00:59:00.55 30,51 00:59:00.55
43 CONFICONI SAMUELE M M3 6 KTM FORTI E LIBERI 00:59:01.00 30,50 00:59:01.00
44 SAVINO CARMINE M M5 4 TEAM PASSION FAENTINA 00:59:01.05 30,50 00:59:01.05
45 PRUNI PAOLO M M4 4 KTM FORTI E LIBERI 00:59:01.55 30,50 00:59:01.55
46 DELLABIANCIA MATTEO M ELMT 10 TEAM CINGOLANI - SPECIALIZED 00:59:01.56 30,50 00:59:01.56
47 CALISE MARCO M M6 2 ASCD VALLE DEL CONCA 00:59:01.77 30,50 00:59:01.77
48 FERRIOLI DEVIS M M2 11 TEAM PASSION FAENTINA 00:59:01.97 30,50 00:59:01.97
49 ANGELICCHIO GIUSEPPE M M3 7 ASD ONLYOFF DUE RUOTE 00:59:02.30 30,49 00:59:02.30
50 PALANCA GIANLUCA M M4 5 SPACCO ASD 00:59:02.31 30,49 00:59:02.31
51 PELLEGRINO PARIDE M M4 6 TEAM TORPEDO BIKE 00:59:03.05 30,48 00:59:03.05
52 ZACCARELLI GIUSEPPE M M3 8 TEAM PASSION FAENTINA 00:59:04.19 30,47 00:59:04.19
53 FUCCI ALESSANDRO M M2 12 KTM FORTI E LIBERI 00:59:08.05 30,44 00:59:08.05
54 FIORINI FABIO M M5 5 KTM FORTI E LIBERI 00:59:09.80 30,43 00:59:09.80
55 LANDINI LEONARDO M M2 13 CYCLING TEAM BOLOGNA 00:59:13.25 30,40 00:59:13.25
56 ROSTI SIMONE M M1 11 NOT ONLY BIKE 00:59:23.30 30,31 00:59:23.30
57 ZANCHINI FABIO M 2S 2 TEAM PASSION FAENTINA 00:59:24.05 30,30 00:59:24.05
58 SBROCCA GIACOMO M ELMT 11 TEAM BIKE LUNANO 00:59:54.05 30,05 00:59:54.05
59 MANIGRASSO GIOVANNI M M4 7 ASD ONLYOFF DUE RUOTE 00:59:55.05 30,04 00:59:55.05
60 MONTANARI MAURO M 2S 3 TEAM PASSION FAENTINA 01:00:04.55 29,97 01:00:04.55
61 BORDONI PIETRO M M5 6 POLISPORTIVA SAMMAURESE 01:00:05.05 29,96 01:00:05.05
62 TORTOLANI UGO M 2S 4 POL. YOUNG LINE 01:00:05.18 29,96 01:00:05.18
63 BABINI STEFANO M M2 14 VITAMINA TEAM 01:00:06.05 29,95 01:00:06.05
64 CRINELLA LORIS M M3 9 ASD H3O RACE TEAM 01:00:06.55 29,95 01:00:06.55
65 ALTINI ANDREA M 2S 5 KTM FORTI E LIBERI 01:00:06.77 29,95 01:00:06.77
66 MAGRINI STEFANO M M6 3 TEAM PASSION FAENTINA 01:00:07.05 29,94 01:00:07.05
67 GRILLI LUCA M 2S 6 INDIVIDUALE 01:00:08.80 29,93 01:00:08.80
68 TAGLIANI MATTEO M M1 12 TEAM BORGHI RACING 01:00:26.05 29,78 01:00:26.05
69 BECCI MORENO M M7 1 GRUPPO TNT 01:00:32.55 29,74 01:00:32.55
70 TURCHI FABRIZIO M 2S 7 KTM FORTI E LIBERI 01:00:32.77 29,74 01:00:32.77
71 RAGGINI ROBERTO M M5 7 SCORPION BIKE MTB 01:00:32.80 29,74 01:00:32.80
72 CORBOLOTTI COSTANTINO M M4 8 TEAM BIKE LUNANO 01:00:33.55 29,73 01:00:33.55
73 EUSEBI LORENZO M ELMT 12 ASD TEAM BIKE VALCONCA 01:00:33.81 29,73 01:00:33.81
74 BONAVITA ILARIO M M5 8 SPACCO ASD 01:00:42.80 29,65 01:00:42.80
75 BALDAZZI DAVIDE M 2S 8 ASDC VALLE DEL CONCA NORDIC WALKING 01:00:42.81 29,65 01:00:42.81
76 ANCARANI ALESSIO M M1 13 TEAM PASSION FAENTINA 01:00:43.55 29,65 01:00:43.55
77 CANTI ERIK M ELMT 13 TEAM PAGANI 01:01:02.05 29,49 01:01:02.05
78 PETRUCCIOLI ARNALDO M M5 9 ASD GS POPPI 01:01:02.55 29,49 01:01:02.55
79 BABINI GIOVANNI M M6 4 SC VELOCIRAPTOR 01:01:03.55 29,48 01:01:03.55
80 AGOSTINI GIACOMO M M4 9 TEAM MONDOBICI TECNOPLAST 01:01:04.05 29,48 01:01:04.05
81 PETTAZZONI DAVIDE M M5 10 BAMBANA BIKE 01:01:04.20 29,48 01:01:04.20
82 RAVAIOLI MARZIO M M5 11 GRUPPO TNT 01:01:04.31 29,48 01:01:04.31
83 MURATORI GIAMPAOLO M M4 10 GRUPPO TNT 01:01:04.46 29,48 01:01:04.46
84 BRUNELLI ENRICO M M3 10 GRUPPO TNT 01:01:05.20 29,47 01:01:05.20
85 GIOVANNINI FABIO M M4 11 SAN MARINO RACE TEAM 01:01:06.04 29,46 01:01:06.04
86 PIERANTONI SIMONE M M3 11 TEAM MONDOBICI TECNOPLAST 01:01:07.80 29,45 01:01:07.80
87 BALDUCCI GIORGIO M M5 12 TEAM BIKE LUNANO 01:01:08.79 29,44 01:01:08.79
88 BURZACCA ANDREA M M6 5 GS TORPADO SURFING SHOP SPORT PROMOTION 01:01:11.20 29,42 01:01:11.20
89 RAGGINI DANILO M M1 14 ASD ECOLOGY TEAM 01:01:11.55 29,42 01:01:11.55
90 URBINATI DANIELE M M2 15 SCORPION BIKE MTB 01:01:39.54 29,20 01:01:39.54
91 BERTI GIANLUCA M ELMT 14 GS CICLI OLIVIERI 01:01:39.55 29,20 01:01:39.55
92 ZAGHINI MARZIO M 2S 9 SPACCO ASD 01:01:39.79 29,20 01:01:39.79
93 TOSI MARCO M ELMT 15 TEAM PAGANI 01:01:40.54 29,19 01:01:40.54
94 CAVICCHI CRISTIAN M M3 12 POL. YOUNG LINE 01:01:40.75 29,19 01:01:40.75
95 BALDO RAFFAELE M 2S 10 TEAM PASSION FAENTINA 01:01:40.79 29,19 01:01:40.79
96 GIOVAGNOLI LUCA M M2 16 GC CARPEGNA AVIS ALTO MONTEFELTRO 01:01:40.80 29,19 01:01:40.80
97 MESSINA GIUSEPPE M M6 6 BAMBANA BIKE 01:01:41.02 29,18 01:01:41.02
98 FRISONI GUIDO M M4 12 BENESSERE E SPORT SSD A RL 01:01:41.55 29,18 01:01:41.55
99 UGOLINI ROBERTO M M3 13 ASD TEAM BIKE VALCONCA 01:01:43.05 29,17 01:01:43.05
100 BOCCALI ANGELO M M3 14 TEAM MONDOBICI TECNOPLAST 01:01:43.80 29,17 01:01:43.80
101 MAMBELLI MARCO M 2S 11 ASD OTW RAVENNA 01:01:49.55 29,12 01:01:49.55
102 PEDROSI CRISTIAN M 2S 12 ASD BLACK ROAD 01:01:54.54 29,08 01:01:54.54
103 CAVIOLI DANIELE M M1 15 ASD LE SALINE NATURA E SPORT 01:01:59.80 29,04 01:01:59.80
104 CARLONI SAMUELE M M4 13 TEAM BIKE LUNANO 01:02:00.20 29,03 01:02:00.20
105 CHIARUCCI FABRIZIO M M6 7 ASD SAMBI TEAM 01:02:00.55 29,03 01:02:00.55
106 BISERNA BRUNO M M4 14 POLISPORTIVA SAN VITTORE - ALFIO TANI 01:02:01.00 29,02 01:02:01.00
107 CAVALLARI ALESSANDRO M M1 16 TEAM SPARROW 01:02:01.05 29,02 01:02:01.05
108 MORICI MAURO M M4 15 AVIS BIKE CINGOLI 01:02:02.20 29,02 01:02:02.20
109 LA GRECA SALVATORE M M2 17 ASDC VALLE DEL CONCA NORDIC WALKING 01:02:04.80 29,00 01:02:04.80
110 BELLETTINI DAVIDE M M2 18 ASDC VALLE DEL CONCA NORDIC WALKING 01:02:04.99 29,00 01:02:04.99
111 PAOLUCCI GIANLUCA M M4 16 TEAM BIKE LUNANO 01:02:05.25 28,99 01:02:05.25
112 SCALPELLI GIANLUCA M M3 15 AVIS BIKE CINGOLI 01:02:06.04 28,99 01:02:06.04
113 AMADEI CLAUDIO M M5 13 ASCD VALLE DEL CONCA 01:02:06.10 28,99 01:02:06.10
114 TOZZI MATTIA M JUN 1 TEAM NOB SELLE ITALIA 01:02:06.30 28,99 01:02:06.30
115 RAVAIOLI MARCO M ELMT 16 GRUPPO TNT 01:02:25.30 28,84 01:02:25.30
116 CARLI FABIO M ELMT 17 TEAM SPARROW 01:02:31.30 28,79 01:02:31.30
117 MANTOVANI MICHELE M ELMT 18 ASD CICLO ESTENSE MESOLA 01:02:31.60 28,79 01:02:31.60
118 CICOGNANI FABRIZIO M M1 17 180 BPM 01:02:53.05 28,62 01:02:53.05
119 RINGHINI MICHELE M ELMT 19 TEAM MONDOBICI TECNOPLAST 01:02:53.79 28,62 01:02:53.79
120 DADI EMILIANO M M4 17 SPECIALISSIMA TEAM BIKE 01:02:54.80 28,62 01:02:54.80
121 AGNOLETTI MARIO M 2S 13 UISP RAVENNA 01:02:55.80 28,61 01:02:55.80
122 LAMI FLAVIO M M6 8 SCORPION BIKE MTB 01:02:57.05 28,59 01:02:57.05
123 CAMPIDELLI SAURO M M5 14 GS CICLI MATTEONI BIANCHI 01:02:57.80 28,59 01:02:57.80
124 GAUDENZI GUGLIELMO M M6 9 ASCD VALLE DEL CONCA 01:02:59.55 28,58 01:02:59.55
125 ALESSANDRINI GUGLIELMO M M6 10 TEAM MONDOBICI TECNOPLAST 01:03:07.30 28,52 01:03:07.30
126 BATTELLI SIMONE M 2S 14 ASCD VALLE DEL CONCA 01:03:37.19 28,29 01:03:37.19
127 D´ELIA GIACOMO M ELMT 20 TEAM PAGANI 01:03:47.30 28,22 01:03:47.30
128 MAESTRI MATTEO M M1 18 ASD CICLO ESTENSE MESOLA 01:03:48.05 28,21 01:03:48.05
129 AMADUCCI ROBERTO M M6 11 180 BPM 01:03:49.19 28,21 01:03:49.19
130 CASADIO CLAUDIO M M4 18 TEAM PASSION FAENTINA 01:03:49.81 28,21 01:03:49.81
131 PAOLONI ALEX M ELMT 21 TEAM MONDOBICI TECNOPLAST 01:03:50.55 28,20 01:03:50.55
132 PAPETTI MIRKO M ELMT 22 ASD SAMBI TEAM 01:03:59.19 28,13 01:03:59.19
133 NANNI MIRKO M M3 16 VITAMINA TEAM 01:04:01.80 28,12 01:04:01.80
134 PERUGINI DANIELE M M6 12 AS TEAM - FORLI´ 01:04:08.55 28,07 01:04:08.55
135 SUCCI ALESSANDRO M ELMT 23 ASD LE SALINE NATURA E SPORT 01:04:09.06 28,06 01:04:09.06
136 CURLO FABRIZIO M ELMT 24 TEAM PAGANI 01:04:13.30 28,03 01:04:13.30
137 GUERRINI EMANUELE M M2 19 TEAM ZANETTI ASD 01:04:13.55 28,03 01:04:13.55
138 MACCAGLI ANDREA M ELMT 25 SAN MARINO RACE TEAM 01:04:13.81 28,03 01:04:13.81
139 BISSIONI LORENZO M M7 2 TEAM TORPEDO BIKE 01:04:15.55 28,02 01:04:15.55
140 CAVINA GIAMBATTISTA M M5 15 ASD IMOLA BIKE 01:04:15.80 28,02 01:04:15.80
141 ANDRUCCIOLI LUCA M ELMT 26 ASCD VALLE DEL CONCA 01:04:16.01 28,01 01:04:16.01
142 MERLARI MICHAEL M M1 19 GS CICLI MATTEONI BIANCHI 01:04:17.81 28,00 01:04:17.81
143 FILIPPINI FABIO M M3 17 ASD CICLO DUCALE URBINO 01:04:17.90 28,00 01:04:17.90
144 PANCISI GABRIELE M M5 16 GRUPPO TNT 01:04:18.31 27,99 01:04:18.31
145 LIVERANI ALESSANDRO M M4 19 TEAM PASSION FAENTINA 01:04:19.04 27,99 01:04:19.04
146 CASADEI MARCO M M4 20 ROWA TEAM 01:04:19.06 27,99 01:04:19.06
147 DAMIANI MATTEO M M1 20 ASD CICLO DUCALE URBINO 01:04:19.20 27,99 01:04:19.20
148 NICOLINI GIORGIO M M1 21 ASD VALMARACING TEAM 01:04:19.56 27,99 01:04:19.56
149 CALDERONI DAVIDE M M3 18 ASD SAMBI TEAM 01:04:20.06 27,98 01:04:20.06
150 DINI ALEX M JUN 2 ASD I BROMBO 01:04:20.20 27,98 01:04:20.20
151 PODESCHI ROBERTO M M4 21 SAN MARINO RACE TEAM 01:04:21.80 27,97 01:04:21.80
152 OTTAVIANI ROBERTO M M6 13 ASD OLIVIERO 01:04:24.55 27,95 01:04:24.55
153 BENVENUTI MATTEO M M3 19 FREEDOM BIKE 01:04:24.90 27,95 01:04:24.90
154 BASSETTI MASSIMO M M6 14 180 BPM 01:04:25.05 27,94 01:04:25.05
155 MONTIRONI GIANCARLO M M7 3 ASD SAMBI TEAM 01:04:27.20 27,93 01:04:27.20
156 MAURO EMANUELE M ELMT 27 TEAM PASSION FAENTINA 01:04:47.80 27,78 01:04:47.80
157 ANCARANI GIULIO M M6 15 180 BPM 01:04:47.81 27,78 01:04:47.81
158 LUBRANO GIORGIO MASSIMO M M2 20 TEAM SPARROW 01:05:05.56 27,66 01:05:05.56
159 DRUDI FRANCESCO M M3 20 BIKE ITAS TESEI ASSICURAZIONI 01:05:08.56 27,64 01:05:08.56
160 TOMBARI DAVIDE M ELMT 28 360 BIKE TEAM 01:05:08.80 27,64 01:05:08.80
161 KOLBE GIANLUCA M ELMT 29 ASD POLISPORTIVA BIKEFAN 01:05:09.50 27,63 01:05:09.50
162 PIPARO MATTEO M ELMT 30 TEAM MONDOBICI TECNOPLAST 01:05:09.56 27,63 01:05:09.56
163 BELARDINELLI RODOLFO M M4 22 TEAM MONDOBICI TECNOPLAST 01:05:10.20 27,62 01:05:10.20
164 QUADRELLI PAOLO M M6 16 SAN MARINO RACE TEAM 01:05:10.55 27,62 01:05:10.55
165 SCALBI DANIELE M ELMT 31 TEAM BIKE LUNANO 01:05:10.65 27,62 01:05:10.65
166 FRANCIONI GIULIO M ELMT 32 TEAM BIKE LUNANO 01:05:11.20 27,61 01:05:11.20
167 SENSOLINI MICHELE M M1 22 ASD TEAM BIKE VALCONCA 01:05:12.55 27,61 01:05:12.55
168 RINALDI MATTIA M M1 23 SAN MARINO RACE TEAM 01:05:13.55 27,60 01:05:13.55
169 CIMATTI ANDREA M M4 23 ASD SAMBI TEAM 01:05:19.20 27,56 01:05:19.20
170 STRADAIOLI MARCO M M2 21 TEAM PASSION FAENTINA 01:05:21.31 27,54 01:05:21.31
171 GASTALDI ELISA F MW1 1 TEAM PASSION FAENTINA 01:05:21.56 27,54 01:05:21.56
172 GAMBELLA DAVID M M4 24 ASD BIKERS RACING TEAM 01:05:27.20 27,50 01:05:27.20
173 CIGNANI ROMANO M M3 21 180 BPM 01:05:43.31 27,39 01:05:43.31
174 CASADEI LUCA M M1 24 ASD TEAM BIKE VALCONCA 01:05:53.20 27,32 01:05:53.20
175 DURANTI ALESSANDRO M ELMT 33 CICLO DUCALE 01:05:54.40 27,31 01:05:54.40
176 BONAIUTI FABIO M M3 22 MTB LA RUPE 01:06:01.20 27,27 01:06:01.20
177 RINALDINI PAOLO M M4 25 POLISPORTIVA SAMMAURESE 01:06:03.81 27,25 01:06:03.81
178 MIGANI DENIS M 2S 15 ASCD VALLE DEL CONCA 01:06:04.06 27,25 01:06:04.06
179 RIGHETTI PIETRO M M6 17 BAMBANA BIKE 01:06:04.56 27,25 01:06:04.56
180 RAFFAELLI FABRIZIO M M4 26 TEAM BIKE LUNANO 01:06:05.05 27,24 01:06:05.05
181 LOMBARDI TIZIANO M M7 4 GRUPPO TNT 01:06:05.81 27,24 01:06:05.81
182 VERIDIANI ALESSANDRO M M4 27 ASD OTW RAVENNA 01:06:26.56 27,09 01:06:26.56
183 BARAVELLI IVAN M ELMT 34 GRUPPO TNT 01:06:27.20 27,09 01:06:27.20
184 CIMINI MARCO M 2S 16 ASD TEAM BIKE VALCONCA 01:06:27.31 27,09 01:06:27.31
185 BOSTRENGHI MARCO M M2 22 GS POLISPORTIVA SIDERMEC FLLI VITALI SEZ CICL 01:06:27.56 27,09 01:06:27.56
186 SILVESTRI GIANCARLO M M5 17 TEAM BIKE LUNANO 01:06:27.81 27,09 01:06:27.81
187 MIGIANI AGOSTINO M M4 28 TEAM BIKE LUNANO 01:06:28.56 27,08 01:06:28.56
188 ZOLLO CARLO M M6 18 KTM FORTI E LIBERI 01:06:28.80 27,08 01:06:28.80
189 TONEZZER LUCA M M2 23 RIDEAWAY ASD 01:06:28.83 27,08 01:06:28.83
190 RICCI LUCA M M2 24 MTB LA RUPE 01:06:28.86 27,08 01:06:28.86
191 FRANCESCHINI ANDREA M M5 18 TEAM CINGOLANI - SPECIALIZED 01:06:29.05 27,07 01:06:29.05
192 MASOTTI IURI M M1 25 TEAM PASSION FAENTINA 01:06:29.20 27,07 01:06:29.20
193 GUIDI GIACOMO M ELMT 35 ASD GREEN BIKE ALE´ 01:06:29.81 27,07 01:06:29.81
194 PAZZINI GERARDO M M6 19 ASD POLISPORTIVA COSMOS 01:06:30.80 27,07 01:06:30.80
195 SASDELLI MICHELE M M3 23 BAMBANA BIKE 01:06:32.56 27,05 01:06:32.56
196 SUCCI MATTEO M JUN 3 ASD LE SALINE NATURA E SPORT 01:07:22.56 26,72 01:07:22.56
197 MAZZINI MARCO M 2S 17 BAMBANA BIKE 01:07:23.56 26,71 01:07:23.56
198 CECCHINI ALFIO M M5 19 ASD TEAM BIKE VALCONCA 01:07:30.31 26,67 01:07:30.31
199 TONELLI ROBERTO M M7 5 COMERO BIKE 01:07:31.05 26,66 01:07:31.05
200 MAESTRI ENRICO M M4 29 ASD CICLO ESTENSE MESOLA 01:07:35.82 26,63 01:07:35.82
201 FUSARI LEONARDO M M2 25 ASD VELOCIRAPTOR RIMINI 01:07:37.81 26,62 01:07:37.81
202 GROSSI SIMONE M M2 26 ASD TEAM BIKE VALCONCA 01:07:47.81 26,56 01:07:47.81
203 MACCAGLI GIULIANO M M5 20 SAN MARINO RACE TEAM 01:07:48.55 26,55 01:07:48.55
204 PISELLI ALEX M M1 26 SAN MARINO RACE TEAM 01:08:06.82 26,43 01:08:06.82
205 GIUNGI DIEGO M JUN 4 ASD TEAM BIKE VALCONCA 01:08:06.97 26,43 01:08:06.97
206 GRAZIANI NICOLA M M3 24 BIKE INNOVATION SQUADRA CORSE 01:08:07.19 26,43 01:08:07.19
207 CINTI GIACOMO M JUN 5 ASD SAMBI TEAM 01:08:11.21 26,40 01:08:11.21
208 CINTI FRANCO M M6 20 ASD SAMBI TEAM 01:08:14.57 26,38 01:08:14.57
209 MORIGI MATTEO M M1 27 TEAM TORPEDO BIKE 01:08:16.07 26,37 01:08:16.07
210 PELLEGRINO PIERPAOLO M M2 27 ASD TEAM BIKE VALCONCA 01:08:16.82 26,37 01:08:16.82
211 BRUSORI MICHELE M M2 28 GS CICLI MATTEONI BIANCHI 01:08:17.57 26,36 01:08:17.57
212 GORRIERI RICCARDO M M4 30 ASD VALMARACING TEAM 01:08:18.32 26,35 01:08:18.32
213 ROSELLI MICHELE M M3 25 ASD I BROMBO 01:08:29.32 26,28 01:08:29.32
214 DI MATTEO FRANCESCO M M2 29 ASD I BROMBO 01:08:29.82 26,28 01:08:29.82
215 BELLAGAMBA MATTIA M 2S 18 LEPRI DI ROMAGNA 01:08:30.21 26,28 01:08:30.21
216 PRUCCOLI ANDREA M JUN 6 ASD LE SALINE NATURA E SPORT 01:08:30.32 26,28 01:08:30.32
217 SELVA FEDERICO M 2S 19 SAN MARINO MTB TEAM 01:08:31.07 26,27 01:08:31.07
218 BARTOLONI GIANNI M M5 21 SAN MARINO MTB TEAM 01:08:31.21 26,27 01:08:31.21
219 RAVAIOLI LORENZO M M4 31 ASD COTEKINO OFF ROAD 01:08:32.07 26,26 01:08:32.07
220 BARTOLINI STEFANO M M4 32 ASD TEAM BIKE VALCONCA 01:08:32.82 26,26 01:08:32.82
221 CASTELLUCCI STEFANO M 2S 20 180 BPM 01:08:35.55 26,25 01:08:35.55
222 PEDUTO GIOVANNI M M1 28 ASD SALINBICI BIKE TEAM RUOTE IN SCIA 01:08:39.07 26,22 01:08:39.07
223 PAOLELLA STEFANO M M2 30 ASD OTW RAVENNA 01:08:40.82 26,21 01:08:40.82
224 FEDUZZI CESARE M M4 33 TEAM BIKE LUNANO 01:08:41.20 26,21 01:08:41.20
225 MAVILLA PAOLO M M6 21 TEAM PASSION FAENTINA 01:08:41.21 26,21 01:08:41.21
226 TESTA LUCA M JUN 7 TEAM MONDOBICI TECNOPLAST 01:08:41.57 26,21 01:08:41.57
227 EUSEBI MAURO M M6 22 ASD TEAM BIKE VALCONCA 01:08:43.82 26,19 01:08:43.82
228 MACCHEROZZI MARTA F MW2 1 GRUPPO TNT 01:08:44.07 26,19 01:08:44.07
229 BALDONI LUCIANO M M4 34 ASD BIKERS RACING TEAM 01:08:50.32 26,15 01:08:50.32
230 MANUZZI MIRCO M ELMT 36 GOOD BIKE AS RONCOFREDDESE 01:08:58.80 26,10 01:08:58.80
231 MARIANI THOMAS M M2 31 GOOD BIKE AS RONCOFREDDESE 01:08:59.21 26,09 01:08:59.21
232 TAROZZI ROBERTO M 2S 21 TEAM PASSION FAENTINA 01:09:06.57 26,05 01:09:06.57
233 ACCIAI MAURIZIO M M6 23 GRUPPO TNT 01:09:06.69 26,05 01:09:06.69
234 MAESTRI CRISTIAN M M1 29 GOOD BIKE AS RONCOFREDDESE 01:09:06.89 26,05 01:09:06.89
235 CIMINIELLO CHRISTIAN M ELMT 37 ASD SAMBI TEAM 01:09:39.81 25,84 01:09:39.81
236 MAZZOTTI MICHELE M M1 30 ASD SAMBI TEAM 01:09:40.00 25,84 01:09:40.00
237 MORGAGNI LUCIANO M M7 6 ASD BORELLO COSMEA PROFUMI 01:09:45.21 25,81 01:09:45.21
238 MACINA PIER MARINO M M5 22 SAN MARINO RACE TEAM 01:09:49.82 25,78 01:09:49.82
239 GARAVINI DAVIDE M M5 23 180 BPM 01:10:02.50 25,70 01:10:02.50
240 VENTURI GIOVANNI M M5 24 TEAM BIKE LUNANO 01:10:02.57 25,70 01:10:02.57
241 BURATTONI FERRUCCIO M M4 35 DEKA RIDERS 01:10:09.56 25,66 01:10:09.56
242 GRANDI ENRICO M M3 26 TEAM MONDOBICI TECNOPLAST 01:10:09.57 25,66 01:10:09.57
243 ZANIBONI CARLO M M4 36 MTB LA RUPE 01:10:10.20 25,65 01:10:10.20
244 BELLUZZI DANIELE M M6 24 NOT ONLY BIKE 01:10:11.32 25,65 01:10:11.32
245 EUSEPI MATTIA M M1 31 TEAM MONDOBICI TECNOPLAST 01:10:14.06 25,63 01:10:14.06
246 MONTEBELLI CHRISTIAN M M2 32 GS CICLI MATTEONI BIANCHI 01:10:15.82 25,62 01:10:15.82
247 BELLAGAMBA MICHELE M M1 32 LEPRI DI ROMAGNA 01:10:16.82 25,62 01:10:16.82
248 FERRI MAURO M M7 7 BAMBANA BIKE 01:10:17.82 25,61 01:10:17.82
249 AMADASI ENRICO M M7 8 BAMBANA BIKE 01:10:22.57 25,58 01:10:22.57
250 DE GREGORIO PIER ANGELO M M5 25 GS CICLI MATTEONI BIANCHI 01:10:24.07 25,57 01:10:24.07
251 CIMMINO ROBERTO M M3 27 ASDC VALLE DEL CONCA NORDIC WALKING 01:10:46.57 25,44 01:10:46.57
252 BATTISTINI GIANNANDREA M M6 25 ASD LE SALINE NATURA E SPORT 01:10:51.57 25,41 01:10:51.57
253 TERMINESI MATTEO M M2 33 TEAM MONDOBICI TECNOPLAST 01:10:52.21 25,40 01:10:52.21
254 GORDINI MATTEO M M1 33 DEKA RIDERS 01:10:56.21 25,38 01:10:56.21
255 PAPETTI FRANCESCO M M7 9 ASD SAMBI TEAM 01:11:26.58 25,20 01:11:26.58
256 BOLLINI ALESSANDRO M M4 37 ASD POLISPORTIVA COSMOS 01:11:26.83 25,20 01:11:26.83
257 PAGNINI NICOLAS M ELMT 38 360 BIKE TEAM 01:11:27.05 25,19 01:11:27.05
258 BALDININI DANIELA F MW2 2 POLISPORTIVA SAMMAURESE 01:11:41.06 25,11 01:11:41.06
259 CECCARONI MATTEO M M3 28 GS CICLI MATTEONI BIANCHI 01:11:49.83 25,06 01:11:49.83
260 BONACORSI ANDREA M M4 38 TEAM MONDOBICI TECNOPLAST 01:11:51.06 25,05 01:11:51.06
261 GUARDIGLI CHIARA F MW2 3 ASD TEAM ENDURANCE 01:11:51.81 25,05 01:11:51.81
262 CAMPEDELLI ROBERTO M M4 39 ASD TEAM ENDURANCE 01:11:52.31 25,05 01:11:52.31
263 ZAPPATA DOMENICO M M1 34 TEAM SPARROW 01:11:52.90 25,05 01:11:52.90
264 RIGHI MATTEO M M1 35 GS CICLI OLIVIERI 01:11:59.58 25,01 01:11:59.58
265 MAGALOTTI GIANLUCA M M4 40 SAN MARINO MTB TEAM 01:12:00.08 25,00 01:12:00.08
266 CIMINI LUCIANO M M7 10 ASD TEAM BIKE VALCONCA 01:12:02.83 24,99 01:12:02.83
267 GIOVAGNOLI ANTIMO M M6 26 GC CARPEGNA AVIS ALTO MONTEFELTRO 01:12:09.83 24,95 01:12:09.83
268 ARLOTTI MAURIZIO M M5 26 TEAM TORPEDO BIKE 01:12:40.33 24,77 01:12:40.33
269 RAVAIOLI GIANCARLO M M7 11 GRUPPO TNT 01:12:40.83 24,77 01:12:40.83
270 SCARDOVI FULVIA F MW2 4 DEKA RIDERS 01:12:49.33 24,72 01:12:49.33
271 CECCOLI TONINO M M6 27 SAN MARINO RACE TEAM 01:12:49.81 24,72 01:12:49.81
272 GIUNGI LUIGI M ELMT 39 ASD TEAM BIKE VALCONCA 01:13:10.58 24,60 01:13:10.58
273 CHILLO TANIA F MW2 5 ASD ONLYOFF DUE RUOTE 01:13:14.83 24,58 01:13:14.83
274 CINI FRANCESCO M M3 29 ASD OTW RAVENNA 01:13:16.32 24,57 01:13:16.32
275 VANNINI TIZIANO M M2 34 ASD GS POPPI 01:13:16.54 24,57 01:13:16.54
276 GIUNTA GIANLUCA M ELMT 40 GS CICLI OLIVIERI 01:13:18.83 24,56 01:13:18.83
277 CAPRA LUCIA F MW2 6 TEAM PASSION FAENTINA 01:13:19.08 24,55 01:13:19.08
278 BARTOLINI MIRKO M M4 41 DEKA RIDERS 01:13:55.82 24,35 01:13:55.82
279 GAMBINI SIMONE M ELMT 41 ASD I BROMBO 01:13:58.06 24,34 01:13:58.06
280 BALDACCI LAURA F MW2 7 GS CICLI MATTEONI BIANCHI 01:14:03.57 24,31 01:14:03.57
281 NOVELLI MIRCO M M2 35 ASD VALMARACING TEAM 01:14:03.66 24,31 01:14:03.66
282 CECCARINI MATTEO M M2 36 GS CICLI MATTEONI BIANCHI 01:14:04.06 24,30 01:14:04.06
283 GIANNINI TULLIO M M6 28 ASD VALMARACING TEAM 01:14:04.07 24,30 01:14:04.07
284 SILVESTRI LORIS M M6 29 GS CICLI MATTEONI BIANCHI 01:14:04.81 24,30 01:14:04.81
285 BARTOLINI SINCERO M M6 30 GS CICLI MATTEONI BIANCHI 01:14:06.91 24,29 01:14:06.91
286 MARRA MAURIZIO M M1 36 GS CICLI MATTEONI BIANCHI 01:14:07.57 24,29 01:14:07.57
287 SAMMARITANI MAURO M M2 37 GS CICLI MATTEONI BIANCHI 01:14:09.25 24,28 01:14:09.25
288 DAMIANI MIRCO M M2 38 ASD I BROMBO 01:14:09.28 24,28 01:14:09.28
289 PISELLI NADIA F MW2 8 GS CICLI MATTEONI BIANCHI 01:14:09.56 24,28 01:14:09.56
290 GIOVAGNOLI FABIO M ELMT 42 GC CARPEGNA AVIS ALTO MONTEFELTRO 01:14:45.23 24,08 01:14:45.23
291 GALLI LAURA F MW2 9 TEAM MONDOBICI TECNOPLAST 01:14:45.83 24,08 01:14:45.83
292 TOSCHI BENEDETTA F MW1 2 POL. YOUNG LINE 01:14:46.83 24,07 01:14:46.83
293 GAGLIANO CLARA F MW2 10 BAMBANA BIKE 01:14:57.58 24,02 01:14:57.58
294 MORETTI MARINO M M7 12 SAN MARINO MTB TEAM 01:14:58.08 24,01 01:14:58.08
295 TANI MARTIN M JUN 8 ASS GRAVITY TEAM 01:15:11.08 23,94 01:15:11.08
296 SALVADORI TOMMASO M M3 30 TEAM BIKE LUNANO 01:15:22.33 23,88 01:15:22.33
297 BALDISSERRI PIETRO M M6 31 LEPRI DI ROMAGNA 01:15:23.08 23,88 01:15:23.08
298 GIAMPRETI PAOLA F MW1 3 GRUPPO TNT 01:15:44.25 23,77 01:15:44.25
299 FERRARI ENRICO M M1 37 SPACCO ASD 01:15:44.29 23,77 01:15:44.29
300 CAVALLI SANDRO M M5 27 ASD SALINBICI BIKE TEAM RUOTE IN SCIA 01:15:50.33 23,74 01:15:50.33
301 MARI ALESSANDRO M M5 28 ASD I BROMBO 01:15:51.08 23,73 01:15:51.08
302 ANGELI FLAVIO M M4 42 TEAM BIKE LUNANO 01:16:12.22 23,62 01:16:12.22
303 BATTAGLIA GIUSEPPE M M3 31 ASD GRUPPO SPORTIVO ESERCITO 01:16:29.08 23,53 01:16:29.08
304 REATI VITTORIA F MW1 4 SC MICHELA FANINI RECORD ROX 01:16:46.22 23,45 01:16:46.22
305 GIULIANELLI MARIO M M7 13 TEAM MONDOBICI TECNOPLAST 01:17:42.23 23,17 01:17:42.23
306 DI GIULI CRISTIAN M ELMT 43 ASD TEAM BIKE VALCONCA 01:17:57.23 23,09 01:17:57.23
307 VINCENZI GERIO M M5 29 A.S.D. I MUFLONI RACING TEAM 01:17:57.83 23,09 01:17:57.83
308 DOLCI LUCA M M1 38 ASD LE SALINE NATURA E SPORT 01:17:58.08 23,09 01:17:58.08
309 BALDUCCI ANTONELLA F MW2 11 SC VELOCIRAPTOR 01:18:09.09 23,03 01:18:09.09
310 VECCHI DANIELE M M6 32 BD FAST 01:18:09.59 23,03 01:18:09.59
311 GASTALDI CARLO M M6 33 SC VELOCIRAPTOR 01:18:09.66 23,03 01:18:09.66
312 MANDOLESI MATTEO M JUN 9 ASD LE SALINE NATURA E SPORT 01:18:30.32 22,93 01:18:30.32
313 CECCARINI LUIGI M M7 14 GS CICLI MATTEONI BIANCHI 01:19:56.84 22,52 01:19:56.84
314 BOLLINI OMAR M M2 39 GS CICLI MATTEONI BIANCHI 01:19:57.23 22,51 01:19:57.23
315 FONTANA GIOVANNI M M2 40 ASD SALINBICI BIKE TEAM RUOTE IN SCIA 01:20:52.34 22,26 01:20:52.34
316 FOGLI GIULIANO M M1 39 TEAM SPARROW 01:20:52.56 22,26 01:20:52.56
317 MONALDI DANIELE M M3 32 SAN MARINO RACE TEAM 01:20:52.57 22,26 01:20:52.57
318 MIGANI MANUEL M M2 41 ASD H3O RACE TEAM 01:21:50.10 22,00 01:21:50.10
319 PIVA LUCIANO M M3 33 ASD VALMARACING TEAM 01:21:51.85 21,99 01:21:51.85
320 VITALI LIBERO M M6 34 ASD POLISPORTIVA BIKEFAN 01:22:05.83 21,93 01:22:05.83
321 BRANDI CRISTIAN M M1 40 TEAM BIKE LUNANO 01:22:31.24 21,81 01:22:31.24
322 VALENTINI ROBERTO M M5 30 SAN MARINO MTB TEAM 01:23:03.60 21,67 01:23:03.60
323 GUAGNELI ALESSANDRO M JUN 10 ASD LE SALINE NATURA E SPORT 01:23:35.10 21,54 01:23:35.10
324 MORRI ALESSIA F MW1 5 ASD LE SALINE NATURA E SPORT 01:23:42.85 21,51 01:23:42.85
325 MENGOZZI MARIA F MW1 6 ASD LE SALINE NATURA E SPORT 01:23:43.08 21,50 01:23:43.08
326 SALTARELLI FRANCESCO M M3 34 SAN MARINO MTB TEAM 01:23:43.21 21,50 01:23:43.21
327 CHIOCCIOLINI DANIELA F MW2 12 180 BPM 01:23:45.24 21,49 01:23:45.24
328 VIROLI ANTONIO M M7 15 180 BPM 01:23:45.60 21,49 01:23:45.60
329 MAROCCINI MAIKOL M ELMT 44 ASD I BROMBO 01:26:39.85 20,77 01:26:39.85
330 MARTINELLI RUBEN LORENZO M M7 16 INDIVIDUALE 01:30:54.25 19,80 01:30:54.25
DNF BAGNOLINI ALESSANDRO M M2 - KTM FORTI E LIBERI - - -
DNF BRACCIAROLI EMILIO M M7 - GRUPPO TNT - - -
DNF CANAREZZA NICOLA M M2 - SAN MARINO RACE TEAM - - -
DNF CARATTONI FABIO M M1 - GS DOGANA R.S.M. CICLISMO - - -
DNF CECCARINI SERGIO M M6 - GS CICLI MATTEONI BIANCHI - - -
DNF CHERUBINI PAOLO M M4 - ROCK RACING - - -
DNF GNOLI LORIS M M2 - GS CICLI MATTEONI BIANCHI - - -
DNF MONDINI GIANPAOLO M M3 - TEAM PASSION FAENTINA - - -
DNF ORI MARCELLO M ELMT - ASD OTW RAVENNA - - -

CORTO - 15.0 Km

Pos Atleta Sesso Cat PosC Team Tempo Media RTime
1 BARTOLUCCI GIANMARIA M ALL 1 ASD LE SALINE NATURA E SPORT 00:27:28.04 32,77 00:27:28.04
2 TONTI ANDREA M ALL 2 ASD LE SALINE NATURA E SPORT 00:29:03.05 30,98 00:29:03.05
3 FIORINI MICHELE M ALL 3 SAN MARINO GRAVITY TEAM 00:31:16.20 28,78 00:31:16.20
4 SERAFINI LORENZO M ALL 4 ASD LE SALINE NATURA E SPORT 00:35:22.20 25,45 00:35:22.20
5 FABBRI GIOVANNI M ALL 5 ASD LE SALINE NATURA E SPORT 00:37:21.06 24,10 00:37:21.06
6 TOZZI ALEX M ES 1 ASCD VALLE DEL CONCA 00:37:41.32 23,88 00:37:41.32
7 PENSERINI ELIA M ES 2 ASD TEAM BIKE VALCONCA 00:39:35.57 22,74 00:39:35.57
8 MANCINI FRANCESCO M ES 3 ASCD VALLE DEL CONCA 00:40:24.22 22,28 00:40:24.22
9 SANDU MARIO ALEXANDRU M ALL 6 ASD TEAM BIKE VALCONCA 00:40:39.82 22,14 00:40:39.82
10 VALENTINI EMANUELE M ES 4 ASCD VALLE DEL CONCA 00:46:49.33 19,22 00:46:49.33